createdAt,value
2018-05-02T00:00:46.317Z,5.00
2018-05-02T00:03:14.812Z,4.03
2018-05-02T00:05:43.415Z,2.28
2018-05-02T00:08:11.970Z,2.35
2018-05-02T00:10:40.591Z,7.30
2018-05-02T00:13:09.201Z,4.05
2018-05-02T00:15:37.687Z,2.42
2018-05-02T00:18:06.777Z,2.53
2018-05-02T00:20:35.309Z,6.07
2018-05-02T00:23:04.118Z,3.53
2018-05-02T00:25:32.653Z,2.97
2018-05-02T00:28:01.156Z,2.62
2018-05-02T00:30:29.662Z,10.32
2018-05-02T00:32:58.127Z,4.70
2018-05-02T00:35:26.204Z,4.55
2018-05-02T00:37:54.741Z,3.92
2018-05-02T00:40:23.348Z,5.25
2018-05-02T00:42:51.956Z,3.55
2018-05-02T00:45:20.306Z,3.45
2018-05-02T00:47:48.818Z,4.55
2018-05-02T00:50:17.307Z,3.62
2018-05-02T00:52:45.727Z,4.68
2018-05-02T00:55:13.989Z,2.70
2018-05-02T00:57:42.388Z,2.80
2018-05-02T01:00:10.698Z,9.07
2018-05-02T01:02:39.221Z,3.42
2018-05-02T01:05:07.939Z,7.22
2018-05-02T01:07:37.171Z,4.55
2018-05-02T01:10:05.354Z,5.32
2018-05-02T01:12:34.578Z,2.83
2018-05-02T01:15:03.698Z,2.60
2018-05-02T01:17:32.294Z,2.42
2018-05-02T01:20:00.899Z,2.60
2018-05-02T01:22:30.538Z,5.28
2018-05-02T01:24:59.232Z,5.20
2018-05-02T01:27:27.924Z,2.50
2018-05-02T01:29:56.389Z,2.67
2018-05-02T01:32:24.577Z,4.20
2018-05-02T01:34:53.016Z,5.90
2018-05-02T01:37:21.538Z,3.70
2018-05-02T01:39:49.783Z,3.50
2018-05-02T01:42:18.411Z,9.38
2018-05-02T01:44:46.908Z,3.83
2018-05-02T01:47:15.405Z,5.95
2018-05-02T01:49:43.900Z,6.30
2018-05-02T01:52:12.416Z,2.03
2018-05-02T01:54:41.244Z,9.00
2018-05-02T01:57:09.819Z,3.40
2018-05-02T01:59:38.410Z,4.62
2018-05-02T02:02:07.635Z,4.00
2018-05-02T02:04:36.159Z,7.32
2018-05-02T02:07:04.519Z,4.70
2018-05-02T02:09:32.707Z,3.10
2018-05-02T02:12:00.998Z,3.22
2018-05-02T02:14:29.126Z,4.28
2018-05-02T02:16:57.194Z,3.92
2018-05-02T02:19:25.708Z,3.80
2018-05-02T02:21:54.295Z,3.78
2018-05-02T02:24:22.616Z,4.70
2018-05-02T02:26:51.140Z,5.18
2018-05-02T02:29:19.709Z,1.80
2018-05-02T02:31:48.195Z,5.68
2018-05-02T02:34:16.854Z,6.50
2018-05-02T02:36:45.448Z,2.45
2018-05-02T02:39:14.047Z,6.07
2018-05-02T02:41:42.653Z,4.28
2018-05-02T02:44:11.358Z,3.70
2018-05-02T02:46:39.880Z,3.50
2018-05-02T02:49:08.172Z,5.07
2018-05-02T02:51:36.661Z,2.30
2018-05-02T02:54:05.023Z,2.12
2018-05-02T02:56:33.687Z,2.28
2018-05-02T02:59:02.015Z,2.40
2018-05-02T03:01:30.350Z,2.70
2018-05-02T03:03:58.720Z,7.37
2018-05-02T03:06:27.253Z,3.50
2018-05-02T03:08:55.509Z,3.42
2018-05-02T03:11:23.708Z,4.85
2018-05-02T03:13:52.103Z,2.20
2018-05-02T03:16:20.405Z,2.70
2018-05-02T03:18:48.690Z,4.32
2018-05-02T03:21:17.090Z,6.37
2018-05-02T03:23:45.397Z,6.12
2018-05-02T03:26:13.881Z,7.65
2018-05-02T03:28:42.201Z,1.50
2018-05-02T03:31:10.598Z,3.50
2018-05-02T03:33:38.786Z,5.50
2018-05-02T03:36:07.133Z,3.40
2018-05-02T03:38:35.489Z,3.53
2018-05-02T03:41:03.886Z,3.45
2018-05-02T03:43:32.192Z,5.70
2018-05-02T03:46:00.835Z,2.87
2018-05-02T03:48:29.201Z,2.85
2018-05-02T03:50:57.586Z,4.82
2018-05-02T03:53:25.975Z,9.48
2018-05-02T03:55:54.089Z,2.22
2018-05-02T03:58:22.587Z,4.37
2018-05-02T04:00:51.317Z,2.70
2018-05-02T04:03:20.823Z,4.25
2018-05-02T04:05:49.304Z,4.25
2018-05-02T04:08:17.812Z,8.48
2018-05-02T04:10:46.414Z,2.45
2018-05-02T04:13:14.951Z,3.08
2018-05-02T04:15:43.576Z,3.28
2018-05-02T04:18:12.088Z,2.67
2018-05-02T04:20:40.537Z,2.53
2018-05-02T04:23:09.175Z,2.45
2018-05-02T04:25:37.623Z,2.10
2018-05-02T04:28:06.892Z,3.60
2018-05-02T04:30:35.172Z,3.28
2018-05-02T04:33:03.868Z,1.50
2018-05-02T04:35:32.094Z,4.18
2018-05-02T04:38:00.369Z,4.90
2018-05-02T04:40:28.827Z,2.90
2018-05-02T04:42:57.022Z,7.90
2018-05-02T04:45:25.306Z,6.18
2018-05-02T04:47:53.519Z,10.98
2018-05-02T04:50:21.937Z,3.62
2018-05-02T04:52:50.432Z,5.18
2018-05-02T04:55:19.147Z,3.60
2018-05-02T04:57:47.518Z,1.62
2018-05-02T05:00:15.928Z,2.90
2018-05-02T05:02:44.148Z,2.80
2018-05-02T05:05:12.390Z,2.60
2018-05-02T05:07:40.617Z,4.32
2018-05-02T05:10:09.108Z,2.80
2018-05-02T05:12:37.349Z,1.40
2018-05-02T05:15:05.753Z,4.60
2018-05-02T05:17:33.999Z,3.72
2018-05-02T05:20:02.298Z,3.47
2018-05-02T05:22:30.482Z,1.90
2018-05-02T05:24:58.891Z,2.30
2018-05-02T05:27:27.292Z,2.78
2018-05-02T05:29:55.814Z,2.83
2018-05-02T05:32:24.068Z,6.85
2018-05-02T05:34:52.470Z,3.75
2018-05-02T05:37:20.938Z,4.40
2018-05-02T05:39:49.266Z,1.85
2018-05-02T05:42:17.666Z,3.35
2018-05-02T05:44:45.880Z,3.20
2018-05-02T05:47:14.276Z,4.72
2018-05-02T05:49:42.778Z,5.72
2018-05-02T05:52:10.803Z,2.35
2018-05-02T05:54:39.376Z,4.18
2018-05-02T05:57:07.888Z,2.12
2018-05-02T05:59:36.276Z,3.03
2018-05-02T06:02:04.814Z,4.00
2018-05-02T06:04:33.830Z,2.42
2018-05-02T06:07:02.339Z,4.22
2018-05-02T06:09:30.773Z,3.15
2018-05-02T06:11:59.100Z,5.00
2018-05-02T06:14:27.473Z,1.62
2018-05-02T06:16:55.672Z,2.97
2018-05-02T06:19:24.073Z,4.55
2018-05-02T06:21:52.363Z,8.60
2018-05-02T06:24:20.828Z,4.95
2018-05-02T06:26:49.057Z,1.80
2018-05-02T06:29:17.497Z,3.75
2018-05-02T06:31:46.028Z,3.47
2018-05-02T06:34:14.262Z,9.50
2018-05-02T06:36:42.344Z,3.62
2018-05-02T06:39:10.569Z,5.75
2018-05-02T06:41:38.758Z,3.80
2018-05-02T06:44:07.343Z,2.87
2018-05-02T06:46:35.735Z,2.85
2018-05-02T06:49:03.824Z,2.15
2018-05-02T06:51:31.939Z,3.65
2018-05-02T06:54:00.415Z,3.90
2018-05-02T06:56:28.829Z,2.25
2018-05-02T06:58:57.168Z,1.95
2018-05-02T07:01:25.749Z,4.32
2018-05-02T07:03:54.140Z,4.55
2018-05-02T07:06:23.249Z,4.80
2018-05-02T07:08:51.451Z,3.25
2018-05-02T07:11:19.928Z,2.65
2018-05-02T07:13:48.238Z,2.00
2018-05-02T07:16:16.635Z,2.62
2018-05-02T07:18:44.713Z,2.83
2018-05-02T07:21:13.148Z,4.57
2018-05-02T07:23:41.314Z,4.05
2018-05-02T07:26:09.617Z,5.32
2018-05-02T07:28:37.820Z,3.30
2018-05-02T07:31:06.451Z,2.60
2018-05-02T07:33:34.707Z,4.28
2018-05-02T07:36:02.932Z,4.30
2018-05-02T07:38:32.014Z,3.90
2018-05-02T07:41:00.524Z,2.05
2018-05-02T07:43:28.711Z,2.43
2018-05-02T07:45:57.015Z,3.80
2018-05-02T07:48:25.089Z,2.03
2018-05-02T07:50:53.305Z,3.47
2018-05-02T07:53:21.390Z,6.60
2018-05-02T07:55:49.728Z,5.90
2018-05-02T07:58:17.887Z,3.97
2018-05-02T08:00:46.168Z,7.60
2018-05-02T08:03:14.370Z,1.90
2018-05-02T08:05:42.661Z,1.90
2018-05-02T08:08:10.872Z,2.10
2018-05-02T08:10:39.387Z,3.40
2018-05-02T08:13:07.756Z,1.50
2018-05-02T08:15:35.786Z,4.67
2018-05-02T08:18:03.942Z,2.03
2018-05-02T08:20:32.250Z,2.33
2018-05-02T08:23:00.521Z,4.10
2018-05-02T08:25:28.694Z,4.67
2018-05-02T08:27:56.842Z,2.73
2018-05-02T08:30:25.222Z,2.60
2018-05-02T08:32:53.469Z,2.63
2018-05-02T08:35:21.804Z,3.87
2018-05-02T08:37:50.013Z,2.53
2018-05-02T08:40:18.202Z,1.83
2018-05-02T08:42:46.282Z,5.87
2018-05-02T08:45:14.490Z,4.47
2018-05-02T08:47:42.666Z,3.35
2018-05-02T08:50:10.887Z,2.65
2018-05-02T08:52:39.060Z,3.12
2018-05-02T08:55:07.262Z,6.03
2018-05-02T08:57:35.367Z,6.10
2018-05-02T09:00:03.715Z,7.47
2018-05-02T09:02:31.947Z,4.47
2018-05-02T09:05:00.246Z,7.30
2018-05-02T09:07:28.772Z,2.03
2018-05-02T09:09:56.938Z,7.70
2018-05-02T09:12:26.123Z,3.03
2018-05-02T09:14:54.571Z,6.20
2018-05-02T09:17:22.661Z,1.90
2018-05-02T09:19:50.841Z,2.60
2018-05-02T09:22:19.311Z,4.17
2018-05-02T09:24:47.755Z,3.80
2018-05-02T09:27:15.929Z,7.53
2018-05-02T09:29:44.129Z,2.40
2018-05-02T09:32:12.590Z,2.37
2018-05-02T09:34:40.959Z,5.90
2018-05-02T09:37:09.332Z,4.87
2018-05-02T09:39:37.640Z,2.60
2018-05-02T09:42:05.933Z,2.30
2018-05-02T09:44:34.056Z,2.70
2018-05-02T09:47:02.437Z,2.63
2018-05-02T09:49:30.903Z,3.93
2018-05-02T09:51:59.214Z,2.20
2018-05-02T09:54:27.672Z,4.20
2018-05-02T09:56:56.380Z,2.60
2018-05-02T09:59:25.044Z,3.90
2018-05-02T10:01:53.532Z,2.63
2018-05-02T10:04:21.677Z,2.10
2018-05-02T10:06:49.926Z,3.87
2018-05-02T10:09:18.214Z,2.73
2018-05-02T10:11:46.514Z,3.63
2018-05-02T10:14:14.804Z,2.63
2018-05-02T10:16:43.360Z,7.97
2018-05-02T10:19:11.844Z,4.10
2018-05-02T10:21:40.030Z,2.20
2018-05-02T10:24:08.142Z,4.07
2018-05-02T10:26:36.506Z,3.03
2018-05-02T10:29:04.897Z,2.50
2018-05-02T10:31:33.185Z,3.23
2018-05-02T10:34:01.497Z,4.50
2018-05-02T10:36:29.782Z,3.63
2018-05-02T10:38:57.871Z,2.90
2018-05-02T10:41:26.075Z,3.80
2018-05-02T10:43:54.248Z,2.33
2018-05-02T10:46:22.451Z,6.60
2018-05-02T10:48:50.556Z,3.40
2018-05-02T10:51:18.848Z,3.20
2018-05-02T10:53:47.049Z,1.90
2018-05-02T10:56:15.574Z,3.33
2018-05-02T10:58:44.084Z,2.67
2018-05-02T11:01:12.783Z,3.13
2018-05-02T11:03:40.961Z,3.67
2018-05-02T11:06:09.358Z,3.47
2018-05-02T11:08:37.530Z,2.10
2018-05-02T11:11:05.948Z,2.70
2018-05-02T11:13:34.720Z,4.13
2018-05-02T11:16:03.247Z,2.80
2018-05-02T11:18:31.431Z,4.30
2018-05-02T11:20:59.874Z,3.73
2018-05-02T11:23:28.240Z,2.23
2018-05-02T11:25:56.430Z,6.50
2018-05-02T11:28:24.759Z,4.53
2018-05-02T11:30:52.845Z,2.77
2018-05-02T11:33:21.021Z,5.30
2018-05-02T11:35:49.205Z,3.30
2018-05-02T11:38:17.717Z,4.30
2018-05-02T11:40:45.906Z,5.10
2018-05-02T11:43:14.156Z,3.70
2018-05-02T11:45:42.386Z,1.83
2018-05-02T11:48:10.785Z,3.07
2018-05-02T11:50:38.896Z,6.93
2018-05-02T11:53:07.329Z,2.90
2018-05-02T11:55:35.903Z,3.27
2018-05-02T11:58:04.395Z,9.43
2018-05-02T12:00:32.469Z,4.00
2018-05-02T12:03:00.914Z,2.60
2018-05-02T12:05:29.562Z,4.90
2018-05-02T12:07:57.793Z,6.20
2018-05-02T12:10:26.254Z,5.00
2018-05-02T12:12:54.597Z,4.33
2018-05-02T12:15:22.763Z,4.43
2018-05-02T12:17:50.962Z,3.13
2018-05-02T12:20:19.118Z,4.03
2018-05-02T12:22:47.241Z,3.63
2018-05-02T12:25:15.355Z,2.60
2018-05-02T12:27:43.730Z,6.90
2018-05-02T12:30:12.312Z,3.63
2018-05-02T12:32:40.551Z,7.00
2018-05-02T12:35:08.724Z,4.20
2018-05-02T12:37:36.936Z,2.40
2018-05-02T12:40:05.223Z,5.20
2018-05-02T12:42:33.530Z,2.40
2018-05-02T12:45:02.227Z,3.67
2018-05-02T12:47:30.423Z,5.50
2018-05-02T12:49:58.728Z,5.10
2018-05-02T12:52:27.122Z,5.60
2018-05-02T12:54:55.487Z,5.10
2018-05-02T12:57:23.702Z,4.23
2018-05-02T12:59:51.810Z,3.60
2018-05-02T13:02:20.017Z,8.30
2018-05-02T13:04:48.177Z,3.90
2018-05-02T13:07:16.374Z,4.60
2018-05-02T13:09:44.492Z,5.97
2018-05-02T13:12:12.791Z,3.40
2018-05-02T13:14:41.171Z,7.23
2018-05-02T13:17:09.271Z,3.67
2018-05-02T13:19:37.576Z,5.00
2018-05-02T13:22:05.768Z,8.00
2018-05-02T13:24:34.067Z,3.60
2018-05-02T13:27:02.374Z,5.50
2018-05-02T13:29:30.968Z,4.80
2018-05-02T13:31:59.160Z,6.33
2018-05-02T13:34:27.552Z,4.93
2018-05-02T13:36:55.747Z,2.73
2018-05-02T13:39:24.014Z,4.27
2018-05-02T13:41:53.377Z,6.03
2018-05-02T13:44:21.655Z,3.90
2018-05-02T13:46:50.522Z,5.10
2018-05-02T13:49:19.943Z,3.77
2018-05-02T13:51:48.400Z,5.83
2018-05-02T13:54:16.771Z,3.60
2018-05-02T13:56:44.975Z,3.87
2018-05-02T13:59:13.172Z,4.93
2018-05-02T14:01:41.369Z,3.33
2018-05-02T14:04:09.568Z,5.40
2018-05-02T14:06:37.866Z,3.43
2018-05-02T14:09:09.432Z,4.27
2018-05-02T14:11:37.411Z,7.43
2018-05-02T14:14:05.724Z,8.90
2018-05-02T14:16:34.016Z,4.80
2018-05-02T14:19:02.337Z,4.60
2018-05-02T14:21:30.949Z,11.27
2018-05-02T14:23:59.313Z,3.20
2018-05-02T14:26:27.407Z,5.63
2018-05-02T14:28:55.603Z,3.77
2018-05-02T14:31:24.017Z,5.27
2018-05-02T14:33:52.433Z,7.47
2018-05-02T14:36:20.604Z,4.70
2018-05-02T14:38:48.879Z,8.10
2018-05-02T14:41:17.377Z,4.13
2018-05-02T14:43:46.045Z,14.60
2018-05-02T14:46:14.186Z,4.70
2018-05-02T14:48:42.595Z,8.40
2018-05-02T14:51:10.867Z,7.57
2018-05-02T14:53:39.104Z,7.03
2018-05-02T14:56:07.572Z,5.30
2018-05-02T14:58:35.999Z,5.33
2018-05-02T15:01:05.241Z,7.00
2018-05-02T15:03:33.595Z,4.00
2018-05-02T15:06:02.417Z,5.73
2018-05-02T15:08:30.711Z,6.20
2018-05-02T15:10:59.205Z,9.33
2018-05-02T15:13:27.637Z,4.67
2018-05-02T15:15:56.158Z,8.00
2018-05-02T15:18:24.507Z,4.07
2018-05-02T15:20:53.204Z,8.93
2018-05-02T15:23:21.525Z,6.30
2018-05-02T15:25:49.757Z,5.77
2018-05-02T15:28:18.949Z,8.43
2018-05-02T15:30:47.408Z,5.90
2018-05-02T15:33:15.732Z,11.70
2018-05-02T15:35:44.111Z,3.87
2018-05-02T15:38:12.553Z,5.33
2018-05-02T15:40:41.025Z,7.40
2018-05-02T15:43:09.765Z,6.93
2018-05-02T15:45:42.371Z,5.87
2018-05-02T15:48:10.720Z,11.63
2018-05-02T15:50:39.319Z,9.17
2018-05-02T15:53:07.414Z,5.83
2018-05-02T15:55:35.601Z,4.67
2018-05-02T15:58:03.717Z,5.23
2018-05-02T16:00:32.017Z,4.43
2018-05-02T16:03:00.405Z,6.53
2018-05-02T16:05:28.684Z,11.53
2018-05-02T16:07:56.897Z,6.03
2018-05-02T16:10:25.091Z,4.00
2018-05-02T16:12:53.274Z,8.00
2018-05-02T16:15:21.576Z,7.27
2018-05-02T16:17:50.226Z,3.00
2018-05-02T16:20:18.570Z,4.93
2018-05-02T16:22:46.971Z,18.13
2018-05-02T16:25:15.295Z,16.90
2018-05-02T16:27:43.629Z,12.77
2018-05-02T16:30:11.857Z,10.07
2018-05-02T16:32:39.975Z,6.30
2018-05-02T16:35:08.143Z,6.73
2018-05-02T16:37:36.569Z,8.40
2018-05-02T16:40:04.839Z,6.20
2018-05-02T16:42:33.270Z,6.43
2018-05-02T16:45:01.716Z,6.00
2018-05-02T16:47:29.835Z,5.40
2018-05-02T16:49:58.037Z,4.20
2018-05-02T16:52:26.312Z,5.90
2018-05-02T16:54:54.521Z,7.57
2018-05-02T16:57:23.895Z,9.60
2018-05-02T16:59:52.363Z,5.27
2018-05-02T17:02:20.737Z,7.30
2018-05-02T17:04:48.917Z,7.73
2018-05-02T17:07:17.119Z,5.93
2018-05-02T17:09:45.409Z,5.50
2018-05-02T17:12:13.560Z,6.30
2018-05-02T17:14:41.934Z,4.50
2018-05-02T17:17:10.210Z,4.50
2018-05-02T17:19:38.819Z,4.27
2018-05-02T17:22:07.147Z,3.97
2018-05-02T17:24:35.396Z,7.13
2018-05-02T17:27:04.272Z,8.90
2018-05-02T17:29:32.621Z,7.87
2018-05-02T17:32:01.017Z,9.43
2018-05-02T17:34:29.412Z,9.80
2018-05-02T17:36:57.498Z,5.10
2018-05-02T17:39:25.697Z,5.07
2018-05-02T17:41:53.992Z,3.60
2018-05-02T17:44:22.189Z,4.33
2018-05-02T17:46:50.610Z,8.40
2018-05-02T17:49:18.903Z,4.50
2018-05-02T17:51:47.079Z,6.03
2018-05-02T17:54:15.722Z,4.25
2018-05-02T17:56:43.866Z,3.80
2018-05-02T17:59:11.961Z,3.30
2018-05-02T18:01:40.261Z,7.35
2018-05-02T18:04:08.564Z,4.80
2018-05-02T18:06:36.757Z,5.43
2018-05-02T18:09:04.941Z,3.70
2018-05-02T18:11:33.346Z,3.07
2018-05-02T18:14:01.569Z,4.73
2018-05-02T18:16:30.549Z,8.02
2018-05-02T18:18:59.334Z,6.40
2018-05-02T18:21:27.762Z,4.82
2018-05-02T18:23:56.914Z,5.53
2018-05-02T18:26:25.284Z,3.58
2018-05-02T18:28:59.132Z,6.00
2018-05-02T18:31:27.581Z,7.28
2018-05-02T18:33:55.769Z,7.07
2018-05-02T18:36:23.929Z,6.25
2018-05-02T18:38:52.511Z,3.75
2018-05-02T18:41:20.909Z,5.62
2018-05-02T18:43:49.161Z,4.45
2018-05-02T18:46:17.682Z,9.52
2018-05-02T18:48:45.988Z,12.95
2018-05-02T18:51:14.461Z,7.82
2018-05-02T18:53:42.673Z,9.63
2018-05-02T18:56:11.005Z,6.28
2018-05-02T18:58:39.175Z,4.90
2018-05-02T19:01:07.386Z,7.28
2018-05-02T19:03:35.643Z,6.90
2018-05-02T19:06:03.843Z,6.00
2018-05-02T19:08:32.352Z,6.15
2018-05-02T19:11:00.664Z,5.50
2018-05-02T19:13:28.946Z,6.68
2018-05-02T19:15:57.137Z,4.75
2018-05-02T19:18:26.277Z,7.82
2018-05-02T19:20:54.662Z,5.97
2018-05-02T19:23:23.663Z,4.68
2018-05-02T19:25:51.846Z,5.45
2018-05-02T19:28:27.219Z,8.80
2018-05-02T19:30:55.703Z,4.60
2018-05-02T19:33:23.817Z,5.85
2018-05-02T19:35:52.427Z,6.32
2018-05-02T19:38:20.819Z,10.32
2018-05-02T19:40:49.204Z,5.53
2018-05-02T19:43:17.404Z,7.85
2018-05-02T19:45:45.693Z,8.05
2018-05-02T19:48:13.884Z,8.05
2018-05-02T19:50:42.091Z,7.40
2018-05-02T19:53:10.297Z,7.32
2018-05-02T19:55:38.573Z,9.20
2018-05-02T19:58:06.657Z,6.32
2018-05-02T20:00:34.893Z,10.02
2018-05-02T20:03:03.374Z,7.40
2018-05-02T20:05:31.688Z,10.68
2018-05-02T20:08:00.069Z,7.68
2018-05-02T20:10:28.348Z,10.68
2018-05-02T20:12:56.455Z,8.35
2018-05-02T20:15:24.645Z,8.35
2018-05-02T20:17:52.842Z,13.07
2018-05-02T20:20:21.030Z,5.37
2018-05-02T20:22:49.334Z,7.37
2018-05-02T20:25:17.472Z,6.78
2018-05-02T20:27:45.927Z,8.48
2018-05-02T20:30:14.333Z,14.45
2018-05-02T20:32:42.628Z,9.10
2018-05-02T20:35:12.590Z,8.15
2018-05-02T20:37:40.868Z,7.65
2018-05-02T20:40:09.833Z,8.07
2018-05-02T20:42:38.058Z,7.12
2018-05-02T20:45:06.267Z,12.75
2018-05-02T20:47:34.801Z,7.07
2018-05-02T20:50:04.375Z,9.05
2018-05-02T20:52:32.780Z,10.77
2018-05-02T20:55:01.158Z,6.30
2018-05-02T20:57:29.371Z,11.68
2018-05-02T20:59:57.878Z,8.80
2018-05-02T21:02:26.425Z,9.20
2018-05-02T21:04:54.566Z,7.62
2018-05-02T21:07:22.973Z,9.43
2018-05-02T21:09:51.263Z,7.28
2018-05-02T21:12:19.462Z,14.13
2018-05-02T21:14:47.657Z,7.80
2018-05-02T21:17:16.053Z,8.23
2018-05-02T21:19:44.443Z,5.90
2018-05-02T21:22:12.646Z,7.40
2018-05-02T21:24:40.834Z,10.50
2018-05-02T21:27:08.923Z,10.05
2018-05-02T21:29:37.129Z,13.18
2018-05-02T21:32:05.402Z,8.07
2018-05-02T21:34:34.109Z,9.48
2018-05-02T21:37:02.820Z,7.35
2018-05-02T21:39:31.148Z,12.55
2018-05-02T21:42:00.174Z,11.73
2018-05-02T21:44:28.754Z,10.15
2018-05-02T21:46:57.246Z,7.68
2018-05-02T21:49:25.354Z,9.00
2018-05-02T21:51:53.464Z,11.15
2018-05-02T21:54:21.732Z,5.85
2018-05-02T21:56:50.124Z,10.15
2018-05-02T21:59:18.325Z,11.18
2018-05-02T22:01:46.526Z,13.18
2018-05-02T22:04:14.915Z,8.82
2018-05-02T22:06:43.003Z,13.65
2018-05-02T22:09:11.217Z,10.35
2018-05-02T22:11:40.060Z,11.25
2018-05-02T22:14:08.424Z,11.00
2018-05-02T22:16:36.712Z,21.17
2018-05-02T22:19:05.018Z,22.20
2018-05-02T22:21:34.040Z,25.88
2018-05-02T22:24:02.401Z,15.77
2018-05-02T22:26:30.794Z,15.88
2018-05-02T22:28:58.905Z,24.77
2018-05-02T22:31:27.085Z,17.10
2018-05-02T22:33:55.301Z,13.90
2018-05-02T22:36:24.713Z,12.68
2018-05-02T22:38:53.107Z,19.62
2018-05-02T22:41:21.285Z,11.80
2018-05-02T22:43:49.395Z,12.27
2018-05-02T22:46:17.587Z,13.60
2018-05-02T22:48:45.835Z,20.83
2018-05-02T22:51:14.080Z,16.17
2018-05-02T22:53:42.157Z,16.73
2018-05-02T22:56:14.335Z,10.73
2018-05-02T22:58:46.655Z,13.85
2018-05-02T23:01:18.972Z,11.63
2018-05-02T23:03:47.008Z,12.55
2018-05-02T23:06:15.205Z,14.23
2018-05-02T23:08:43.405Z,14.30
2018-05-02T23:11:11.585Z,10.88
2018-05-02T23:13:39.682Z,16.67
2018-05-02T23:16:07.883Z,14.05
2018-05-02T23:18:36.289Z,15.95
2018-05-02T23:21:04.480Z,15.20
2018-05-02T23:23:32.767Z,12.43
2018-05-02T23:26:01.088Z,19.77
2018-05-02T23:28:29.263Z,13.38
2018-05-02T23:30:57.563Z,16.05
2018-05-02T23:33:25.767Z,11.43
2018-05-02T23:35:54.043Z,12.50
2018-05-02T23:38:22.243Z,13.35
2018-05-02T23:40:50.645Z,15.82
2018-05-02T23:43:18.831Z,12.57
2018-05-02T23:45:47.024Z,13.20
2018-05-02T23:48:15.224Z,11.95
2018-05-02T23:50:43.324Z,15.75
2018-05-02T23:53:11.511Z,17.95
2018-05-02T23:55:39.802Z,12.13
2018-05-02T23:58:08.002Z,10.25
